createdAt,value
2022-09-22T00:01:26.117Z,8.40
2022-09-22T00:03:55.018Z,8.60
2022-09-22T00:06:26.489Z,8.60
2022-09-22T00:08:54.659Z,8.50
2022-09-22T00:11:22.693Z,8.40
2022-09-22T00:13:51.601Z,8.30
2022-09-22T00:16:20.437Z,8.30
2022-09-22T00:18:47.157Z,8.40
2022-09-22T00:21:15.546Z,8.30
2022-09-22T00:23:42.595Z,8.30
2022-09-22T00:26:11.026Z,8.30
2022-09-22T00:28:38.733Z,8.30
2022-09-22T00:31:16.025Z,8.30
2022-09-22T00:33:43.237Z,8.20
2022-09-22T00:36:10.249Z,8.20
2022-09-22T00:38:37.814Z,8.30
2022-09-22T00:41:04.901Z,8.50
2022-09-22T00:43:34.161Z,8.40
2022-09-22T00:46:03.042Z,8.40
2022-09-22T00:48:31.897Z,8.40
2022-09-22T00:51:00.025Z,8.40
2022-09-22T00:53:26.865Z,8.40
2022-09-22T00:56:02.312Z,8.40
2022-09-22T00:58:31.841Z,8.30
2022-09-22T01:00:58.853Z,8.30
2022-09-22T01:03:29.723Z,8.30
2022-09-22T01:05:58.308Z,8.30
2022-09-22T01:08:25.707Z,8.30
2022-09-22T01:10:53.802Z,8.30
2022-09-22T01:13:26.429Z,8.20
2022-09-22T01:16:04.890Z,8.20
2022-09-22T01:18:37.866Z,8.10
2022-09-22T01:21:23.051Z,7.90
2022-09-22T01:24:00.878Z,8.00
2022-09-22T01:26:27.501Z,7.90
2022-09-22T01:29:22.934Z,7.90
2022-09-22T01:31:57.709Z,7.90
2022-09-22T01:34:24.349Z,8.00
2022-09-22T01:37:09.286Z,8.00
2022-09-22T01:39:35.949Z,8.00
2022-09-22T01:42:15.101Z,8.00
2022-09-22T01:44:51.633Z,8.00
2022-09-22T01:47:18.340Z,8.00
2022-09-22T01:49:53.739Z,7.90
2022-09-22T01:52:22.983Z,7.70
2022-09-22T01:54:57.997Z,7.60
2022-09-22T01:57:51.007Z,7.60
2022-09-22T02:00:18.020Z,7.50
2022-09-22T02:02:47.527Z,7.50
2022-09-22T02:05:23.740Z,7.40
2022-09-22T02:07:51.806Z,7.30
2022-09-22T02:10:20.504Z,7.50
2022-09-22T02:12:47.198Z,7.50
2022-09-22T02:15:13.884Z,7.50
2022-09-22T02:17:40.633Z,7.30
2022-09-22T02:20:08.632Z,7.30
2022-09-22T02:22:35.339Z,7.30
2022-09-22T02:25:01.998Z,7.20
2022-09-22T02:27:30.558Z,7.20
2022-09-22T02:29:59.650Z,6.80
2022-09-22T03:41:04.758Z,6.40
2022-09-22T03:43:31.452Z,6.40
2022-09-22T03:45:59.079Z,6.30
2022-09-22T03:48:26.838Z,6.30
2022-09-22T03:50:53.614Z,6.70
2022-09-22T03:53:20.355Z,7.00
2022-09-22T03:55:47.148Z,7.10
2022-09-22T03:58:13.978Z,7.10
2022-09-22T04:00:40.661Z,7.10
2022-09-22T04:03:07.359Z,6.60
2022-09-22T04:05:34.091Z,6.30
2022-09-22T04:08:00.888Z,6.00
2022-09-22T04:10:27.560Z,6.00
2022-09-22T04:12:54.233Z,6.00
2022-09-22T04:15:20.886Z,6.30
2022-09-22T04:17:48.209Z,6.80
2022-09-22T04:20:14.879Z,6.80
2022-09-22T04:22:41.590Z,6.60
2022-09-22T04:25:08.637Z,6.50
2022-09-22T04:27:35.284Z,6.40
2022-09-22T04:30:02.010Z,6.40
2022-09-22T04:32:28.659Z,6.30
2022-09-22T04:34:55.347Z,6.30
2022-09-22T04:37:22.042Z,6.30
2022-09-22T04:39:48.685Z,6.20
2022-09-22T04:42:15.342Z,6.20
2022-09-22T04:44:41.977Z,6.00
2022-09-22T04:47:08.625Z,6.10
2022-09-22T04:49:35.301Z,6.00
2022-09-22T04:52:02.056Z,6.30
2022-09-22T04:54:28.724Z,6.30
2022-09-22T04:56:55.387Z,6.50
2022-09-22T04:59:22.077Z,6.70
2022-09-22T05:01:48.790Z,7.00
2022-09-22T05:04:15.466Z,7.00
2022-09-22T05:06:42.210Z,6.80
2022-09-22T05:09:08.945Z,6.50
2022-09-22T05:11:35.726Z,6.10
2022-09-22T05:14:02.373Z,6.00
2022-09-22T05:16:29.141Z,5.90
2022-09-22T05:18:55.892Z,6.00
2022-09-22T05:21:22.563Z,5.90
2022-09-22T05:23:49.366Z,6.30
2022-09-22T05:26:16.031Z,6.30
2022-09-22T05:28:42.756Z,6.20
2022-09-22T05:31:09.424Z,6.20
2022-09-22T05:33:36.258Z,6.30
2022-09-22T05:36:03.099Z,6.40
2022-09-22T05:38:29.750Z,6.60
2022-09-22T05:40:56.456Z,6.70
2022-09-22T05:43:23.141Z,6.60
2022-09-22T05:45:49.957Z,6.60
2022-09-22T05:48:16.766Z,6.70
2022-09-22T05:50:43.714Z,6.70
2022-09-22T05:53:10.689Z,7.20
2022-09-22T06:02:58.724Z,8.20
2022-09-22T06:05:25.520Z,7.80
2022-09-22T06:07:58.953Z,7.70
2022-09-22T06:10:25.663Z,7.70
2022-09-22T06:12:57.128Z,7.80
2022-09-22T06:15:23.819Z,7.80
2022-09-22T06:17:53.594Z,7.80
2022-09-22T06:20:20.328Z,7.80
2022-09-22T06:22:47.022Z,7.80
2022-09-22T06:25:13.715Z,8.00
2022-09-22T06:27:40.443Z,8.10
2022-09-22T06:30:07.527Z,8.30
2022-09-22T06:32:34.206Z,8.50
2022-09-22T06:35:00.860Z,8.50
2022-09-22T06:37:27.602Z,8.50
2022-09-22T06:39:54.417Z,8.40
2022-09-22T06:42:21.078Z,8.40
2022-09-22T06:44:48.070Z,8.30
2022-09-22T06:47:14.793Z,8.40
2022-09-22T06:49:41.498Z,8.30
2022-09-22T06:52:12.730Z,8.40
2022-09-22T06:54:39.406Z,8.40
2022-09-22T06:57:06.084Z,8.40
2022-09-22T06:59:32.750Z,8.40
2022-09-22T07:01:59.490Z,8.50
2022-09-22T07:04:26.250Z,8.50
2022-09-22T07:06:52.883Z,8.80
2022-09-22T07:09:19.614Z,9.30
2022-09-22T07:11:46.284Z,9.60
2022-09-22T07:14:12.990Z,9.90
2022-09-22T07:16:39.691Z,10.20
2022-09-22T07:19:06.606Z,10.40
2022-09-22T07:21:33.297Z,10.60
2022-09-22T07:24:00.005Z,10.70
2022-09-22T07:26:28.359Z,10.80
2022-09-22T07:28:55.753Z,10.90
2022-09-22T07:31:27.748Z,11.10
2022-09-22T07:33:55.997Z,11.10
2022-09-22T07:36:23.689Z,11.10
2022-09-22T07:38:51.072Z,11.00
2022-09-22T07:41:21.999Z,11.10
2022-09-22T07:43:52.542Z,11.40
2022-09-22T07:46:19.888Z,11.70
2022-09-22T07:48:46.716Z,11.90
2022-09-22T07:53:43.911Z,12.50
2022-09-22T07:56:11.463Z,12.50
2022-09-22T07:58:39.706Z,12.40
2022-09-22T08:01:07.333Z,12.60
2022-09-22T08:03:34.314Z,12.60
2022-09-22T08:06:05.876Z,12.50
2022-09-22T08:08:32.833Z,12.40
2022-09-22T08:11:06.330Z,12.50
2022-09-22T08:13:33.256Z,12.40
2022-09-22T08:16:00.392Z,12.40
2022-09-22T08:18:27.105Z,12.40
2022-09-22T08:20:53.830Z,12.30
2022-09-22T08:23:20.497Z,12.40
2022-09-22T08:25:47.173Z,12.30
2022-09-22T08:28:13.906Z,12.40
2022-09-22T08:30:44.575Z,12.40
2022-09-22T08:33:11.232Z,12.30
2022-09-22T08:35:37.937Z,12.40
2022-09-22T08:38:08.221Z,12.60
2022-09-22T08:40:38.991Z,12.80
2022-09-22T08:43:05.710Z,13.10
2022-09-22T08:45:34.658Z,13.30
2022-09-22T08:48:06.364Z,13.30
2022-09-22T08:50:36.854Z,13.50
2022-09-22T08:53:04.749Z,13.50
2022-09-22T08:55:31.801Z,13.60
2022-09-22T08:58:17.235Z,13.60
2022-09-22T09:00:47.298Z,13.70
2022-09-22T09:03:26.301Z,13.60
2022-09-22T09:06:10.983Z,13.50
2022-09-22T09:08:57.551Z,13.60
2022-09-22T09:11:49.227Z,14.00
2022-09-22T09:14:39.115Z,14.10
2022-09-22T09:17:18.225Z,14.00
2022-09-22T09:19:49.734Z,14.00
2022-09-22T09:22:19.132Z,14.20
2022-09-22T09:27:39.396Z,14.20
2022-09-22T09:30:15.028Z,14.40
2022-09-22T09:32:50.381Z,14.30
2022-09-22T09:35:22.132Z,14.10
2022-09-22T09:37:48.937Z,13.90
2022-09-22T09:40:16.987Z,14.20
2022-09-22T09:42:45.443Z,14.50
2022-09-22T09:45:14.156Z,14.60
2022-09-22T09:47:46.466Z,14.70
2022-09-22T09:50:13.626Z,14.70
2022-09-22T09:52:40.304Z,14.60
2022-09-22T09:55:18.148Z,14.60
2022-09-22T09:58:03.336Z,14.10
2022-09-22T10:00:30.005Z,14.10
2022-09-22T10:03:02.847Z,14.00
2022-09-22T10:05:30.237Z,14.20
2022-09-22T10:07:58.025Z,14.40
2022-09-22T10:10:35.084Z,14.70
2022-09-22T10:13:04.749Z,14.90
2022-09-22T10:15:35.506Z,15.10
2022-09-22T10:18:02.518Z,15.20
2022-09-22T10:20:29.166Z,15.00
2022-09-22T10:22:56.296Z,15.00
2022-09-22T10:25:27.421Z,14.90
2022-09-22T10:28:06.349Z,14.60
2022-09-22T10:30:33.124Z,14.50
2022-09-22T10:33:18.673Z,14.20
2022-09-22T10:35:54.545Z,14.40
2022-09-22T10:38:24.859Z,14.60
2022-09-22T10:41:02.240Z,15.10
2022-09-22T10:43:37.786Z,15.30
2022-09-22T10:48:44.673Z,15.40
2022-09-22T10:51:26.334Z,15.70
2022-09-22T10:54:10.830Z,15.80
2022-09-22T10:56:39.984Z,15.20
2022-09-22T10:59:15.752Z,15.00
2022-09-22T11:02:01.031Z,14.70
2022-09-22T11:04:40.029Z,14.50
2022-09-22T11:07:09.572Z,14.50
2022-09-22T11:09:50.743Z,14.30
2022-09-22T11:12:34.376Z,14.50
2022-09-22T11:15:19.653Z,15.00
2022-09-22T11:17:46.303Z,15.40
2022-09-22T11:20:15.715Z,15.30
2022-09-22T11:23:07.378Z,15.50
2022-09-22T11:25:33.999Z,15.70
2022-09-22T11:28:03.421Z,15.70
2022-09-22T11:30:34.071Z,15.70
2022-09-22T11:33:03.781Z,16.20
2022-09-22T11:35:36.399Z,16.20
2022-09-22T11:38:11.344Z,16.00
2022-09-22T11:43:27.537Z,15.50
2022-09-22T11:46:01.432Z,15.70
2022-09-22T11:48:46.446Z,15.80
2022-09-22T11:51:18.849Z,16.00
2022-09-22T11:53:51.610Z,16.00
2022-09-22T11:56:25.322Z,15.80
2022-09-22T11:58:53.229Z,15.70
2022-09-22T12:01:21.947Z,15.70
2022-09-22T12:03:51.735Z,15.70
2022-09-22T12:06:19.806Z,15.20
2022-09-22T12:11:26.736Z,14.90
2022-09-22T12:13:54.571Z,15.00
2022-09-22T12:16:33.360Z,15.20
2022-09-22T12:19:04.724Z,15.40
2022-09-22T12:21:51.657Z,15.60
2022-09-22T12:24:18.533Z,15.60
2022-09-22T12:26:46.326Z,15.70
2022-09-22T12:29:16.016Z,15.60
2022-09-22T12:31:43.766Z,15.80
2022-09-22T12:34:20.883Z,15.90
2022-09-22T12:36:48.214Z,16.00
2022-09-22T12:39:16.649Z,16.30
2022-09-22T12:41:49.302Z,16.00
2022-09-22T12:44:17.947Z,16.20
2022-09-22T12:46:44.971Z,16.10
2022-09-22T12:49:15.096Z,16.20
2022-09-22T12:51:41.837Z,16.30
2022-09-22T12:54:23.722Z,16.20
2022-09-22T12:57:20.400Z,16.00
2022-09-22T12:59:54.846Z,16.10
2022-09-22T13:02:29.444Z,15.90
2022-09-22T13:04:56.131Z,16.20
2022-09-22T13:07:37.867Z,15.90
2022-09-22T13:10:22.660Z,16.10
2022-09-22T13:13:01.771Z,16.00
2022-09-22T13:15:29.319Z,16.10
2022-09-22T13:17:55.998Z,16.30
2022-09-22T13:20:33.231Z,16.30
2022-09-22T13:23:12.556Z,16.40
2022-09-22T13:25:39.884Z,16.40
2022-09-22T13:28:12.115Z,16.30
2022-09-22T13:30:39.626Z,16.20
2022-09-22T13:33:17.408Z,16.60
2022-09-22T13:35:44.357Z,16.20
2022-09-22T13:38:13.297Z,16.00
2022-09-22T13:40:45.022Z,16.00
2022-09-22T13:43:11.850Z,16.10
2022-09-22T13:45:39.394Z,16.10
2022-09-22T13:48:10.934Z,16.00
2022-09-22T13:50:40.418Z,15.80
2022-09-22T13:53:07.801Z,15.90
2022-09-22T13:55:36.158Z,16.00
2022-09-22T13:58:03.659Z,15.90
2022-09-22T14:01:01.475Z,15.80
2022-09-22T14:03:26.453Z,15.80
2022-09-22T14:05:54.131Z,15.90
2022-09-22T14:08:24.690Z,15.70
2022-09-22T14:10:51.693Z,15.60
2022-09-22T14:13:37.080Z,15.70
2022-09-22T14:16:08.461Z,15.60
2022-09-22T14:18:38.860Z,15.60
2022-09-22T14:21:08.316Z,15.80
2022-09-22T14:23:35.422Z,16.00
2022-09-22T14:26:03.923Z,15.90
2022-09-22T14:28:33.933Z,16.10
2022-09-22T14:31:01.176Z,16.20
2022-09-22T14:33:29.806Z,16.00
2022-09-22T14:36:00.764Z,16.00
2022-09-22T14:38:28.979Z,16.00
2022-09-22T14:40:58.746Z,15.90
2022-09-22T14:43:30.163Z,15.70
2022-09-22T14:45:58.762Z,15.70
2022-09-22T14:48:32.954Z,15.40
2022-09-22T14:51:04.610Z,15.10
2022-09-22T14:53:37.659Z,15.20
2022-09-22T14:56:07.777Z,15.40
2022-09-22T14:58:40.303Z,15.30
2022-09-22T15:01:24.725Z,15.30
2022-09-22T15:03:59.670Z,15.40
2022-09-22T15:06:34.803Z,15.40
2022-09-22T15:09:02.395Z,15.40
2022-09-22T15:11:48.929Z,15.30
2022-09-22T15:14:24.692Z,15.10
2022-09-22T15:16:51.408Z,15.20
2022-09-22T15:19:18.179Z,15.00
2022-09-22T15:21:44.959Z,15.00
2022-09-22T15:24:11.895Z,14.90
2022-09-22T15:26:39.019Z,14.90
2022-09-22T15:29:05.767Z,14.80
2022-09-22T15:31:32.571Z,14.70
2022-09-22T15:34:00.406Z,14.60
2022-09-22T15:36:28.090Z,14.70
2022-09-22T15:38:58.183Z,14.60
2022-09-22T15:41:24.973Z,14.50
2022-09-22T15:43:51.855Z,14.50
2022-09-22T15:46:27.557Z,14.40
2022-09-22T15:48:57.579Z,14.30
2022-09-22T15:51:24.265Z,14.30
2022-09-22T15:53:50.943Z,14.10
2022-09-22T15:56:17.787Z,14.00
2022-09-22T15:58:44.500Z,13.90
2022-09-22T16:01:11.390Z,13.80
2022-09-22T16:03:41.355Z,13.70
2022-09-22T16:06:10.911Z,13.60
2022-09-22T16:08:39.620Z,13.40
2022-09-22T16:11:06.273Z,13.30
2022-09-22T16:13:33.175Z,13.30
2022-09-22T16:16:00.543Z,13.10
2022-09-22T16:18:27.221Z,13.20
2022-09-22T16:21:02.318Z,13.20
2022-09-22T16:23:28.963Z,12.90
2022-09-22T16:25:55.663Z,12.80
2022-09-22T16:28:22.296Z,12.70
2022-09-22T16:30:48.950Z,12.60
2022-09-22T16:33:15.674Z,12.60
2022-09-22T16:35:42.341Z,12.60
2022-09-22T16:38:09.004Z,12.50
2022-09-22T16:40:35.797Z,12.50
2022-09-22T16:43:02.494Z,12.30
2022-09-22T16:45:29.358Z,12.10
2022-09-22T16:47:56.021Z,12.10
2022-09-22T16:50:22.671Z,12.00
2022-09-22T16:52:49.439Z,12.00
2022-09-22T16:57:43.154Z,11.70
2022-09-22T17:00:10.119Z,11.80
2022-09-22T17:02:36.836Z,11.80
2022-09-22T17:05:03.591Z,11.80
2022-09-22T17:07:30.259Z,11.70
2022-09-22T17:09:56.967Z,11.70
2022-09-22T17:12:23.630Z,11.50
2022-09-22T17:14:50.315Z,11.40
2022-09-22T17:17:17.051Z,11.40
2022-09-22T17:19:43.733Z,11.40
2022-09-22T17:22:10.417Z,11.30
2022-09-22T17:24:37.054Z,11.20
2022-09-22T17:27:03.794Z,11.30
2022-09-22T17:29:30.540Z,11.10
2022-09-22T17:31:58.519Z,10.90
2022-09-22T17:34:26.306Z,10.90
2022-09-22T17:36:52.964Z,10.80
2022-09-22T17:39:19.698Z,10.90
2022-09-22T17:41:46.333Z,10.80
2022-09-22T17:44:13.659Z,10.90
2022-09-22T17:46:40.437Z,11.10
2022-09-22T17:49:08.772Z,11.00
2022-09-22T17:51:36.536Z,10.90
2022-09-22T17:54:04.784Z,10.80
2022-09-22T17:56:31.441Z,10.70
2022-09-22T17:58:58.175Z,10.70
2022-09-22T18:01:24.999Z,10.60
2022-09-22T18:03:51.725Z,10.60
2022-09-22T18:06:18.436Z,10.40
2022-09-22T18:08:45.111Z,10.50
2022-09-22T18:11:11.781Z,10.50
2022-09-22T18:13:39.335Z,10.40
2022-09-22T18:16:16.320Z,10.30
2022-09-22T18:18:43.024Z,10.30
2022-09-22T18:21:09.667Z,10.30
2022-09-22T18:23:36.352Z,10.20
2022-09-22T18:26:03.420Z,10.30
2022-09-22T18:28:30.119Z,10.30
2022-09-22T18:30:56.888Z,10.10
2022-09-22T18:33:23.643Z,10.10
2022-09-22T18:35:50.319Z,10.10
2022-09-22T18:38:16.991Z,10.20
2022-09-22T18:40:43.957Z,10.00
2022-09-22T18:43:10.751Z,10.10
2022-09-22T18:45:37.390Z,10.00
2022-09-22T18:48:04.145Z,10.20
2022-09-22T18:50:31.079Z,10.20
2022-09-22T18:52:57.995Z,10.30
2022-09-22T18:55:24.789Z,10.20
2022-09-22T18:57:51.737Z,10.20
2022-09-22T19:00:18.619Z,10.20
2022-09-22T19:02:45.611Z,10.20
2022-09-22T19:05:12.325Z,10.10
2022-09-22T19:07:46.027Z,10.10
2022-09-22T19:10:17.626Z,10.00
2022-09-22T19:12:44.340Z,9.90
2022-09-22T19:15:15.662Z,9.90
2022-09-22T19:17:44.089Z,9.90
2022-09-22T19:20:20.854Z,10.00
2022-09-22T19:22:48.021Z,10.00
2022-09-22T19:25:14.710Z,10.00
2022-09-22T19:27:41.578Z,9.80
2022-09-22T19:30:09.477Z,9.90
2022-09-22T19:32:36.409Z,9.90
2022-09-22T19:35:03.453Z,9.80
2022-09-22T19:37:30.382Z,9.90
2022-09-22T19:39:57.145Z,9.90
2022-09-22T19:42:24.262Z,9.90
2022-09-22T19:44:50.990Z,9.80
2022-09-22T19:47:17.713Z,9.80
2022-09-22T19:49:44.611Z,9.70
2022-09-22T19:52:11.435Z,9.70
2022-09-22T19:54:38.165Z,9.80
2022-09-22T19:57:05.071Z,9.80
2022-09-22T19:59:31.758Z,9.70
2022-09-22T20:01:58.672Z,9.70
2022-09-22T20:04:25.411Z,9.70
2022-09-22T20:06:52.595Z,9.70
2022-09-22T20:09:19.294Z,9.50
2022-09-22T20:11:47.418Z,9.50
2022-09-22T20:14:14.609Z,9.30
2022-09-22T20:16:44.679Z,9.30
2022-09-22T20:19:13.604Z,9.20
2022-09-22T20:21:41.727Z,9.30
2022-09-22T20:24:11.370Z,9.30
2022-09-22T20:26:38.116Z,9.20
2022-09-22T20:29:05.229Z,9.20
2022-09-22T20:31:31.977Z,9.20
2022-09-22T20:33:58.689Z,9.10
2022-09-22T20:36:25.459Z,9.10
2022-09-22T20:38:52.165Z,9.00
2022-09-22T20:41:19.781Z,9.20
2022-09-22T20:43:46.484Z,9.00
2022-09-22T20:46:13.582Z,9.10
2022-09-22T20:48:40.347Z,9.00
2022-09-22T20:51:07.562Z,9.00
2022-09-22T20:53:35.329Z,8.90
2022-09-22T20:56:03.951Z,8.90
2022-09-22T20:58:32.195Z,9.00
2022-09-22T21:00:59.366Z,8.90
2022-09-22T21:03:26.475Z,9.00
2022-09-22T21:05:58.027Z,8.90
2022-09-22T21:08:24.776Z,8.90
2022-09-22T21:10:51.441Z,8.80
2022-09-22T21:13:18.203Z,8.70
2022-09-22T21:15:44.979Z,8.50
2022-09-22T21:18:11.735Z,8.40
2022-09-22T21:20:39.785Z,8.20
2022-09-22T21:23:06.506Z,8.00
2022-09-22T21:25:33.245Z,8.00
2022-09-22T21:27:59.971Z,7.90
2022-09-22T21:30:26.695Z,7.70
2022-09-22T21:35:20.619Z,7.40
2022-09-22T21:37:47.381Z,7.40
2022-09-22T21:40:14.246Z,7.20
2022-09-22T21:42:41.123Z,7.30
2022-09-22T21:45:08.102Z,7.40
2022-09-22T21:47:34.817Z,7.60
2022-09-22T21:50:01.523Z,7.70
2022-09-22T21:52:28.256Z,7.50
2022-09-22T21:54:54.962Z,7.40
2022-09-22T21:57:21.690Z,7.10
2022-09-22T21:59:48.388Z,6.80
2022-09-22T22:02:15.098Z,6.80
2022-09-22T22:04:41.903Z,6.80
2022-09-22T22:07:08.717Z,6.90
2022-09-22T22:09:35.425Z,7.00
2022-09-22T22:12:02.158Z,7.00
2022-09-22T22:14:28.977Z,7.10
2022-09-22T22:16:55.666Z,7.10
2022-09-22T22:19:23.150Z,7.10
2022-09-22T22:21:50.539Z,7.30
2022-09-22T22:24:19.220Z,7.20
2022-09-22T22:26:46.799Z,7.20
2022-09-22T22:29:13.849Z,7.20
2022-09-22T22:31:40.917Z,7.30
2022-09-22T22:34:11.903Z,7.20
2022-09-22T22:36:38.947Z,7.20
2022-09-22T22:39:05.960Z,7.00
2022-09-22T22:41:32.930Z,7.00
2022-09-22T22:43:59.591Z,7.10
2022-09-22T22:46:26.382Z,7.00
2022-09-22T22:48:53.188Z,6.90
2022-09-22T22:51:20.406Z,7.00
2022-09-22T22:53:47.328Z,7.10
2022-09-22T22:56:15.490Z,7.10
2022-09-22T22:58:43.043Z,7.10
2022-09-22T23:01:11.433Z,7.10
2022-09-22T23:03:39.061Z,7.10
2022-09-22T23:06:05.875Z,7.00
2022-09-22T23:08:32.607Z,7.00
2022-09-22T23:11:00.280Z,6.90
2022-09-22T23:13:27.028Z,6.90
2022-09-22T23:16:00.323Z,7.10
2022-09-22T23:18:27.175Z,7.10
2022-09-22T23:20:54.157Z,6.90
2022-09-22T23:23:20.950Z,6.70
2022-09-22T23:25:51.313Z,6.60
2022-09-22T23:28:18.039Z,6.70
2022-09-22T23:30:44.851Z,6.60
2022-09-22T23:33:11.793Z,6.70
2022-09-22T23:35:38.573Z,6.60
2022-09-22T23:38:07.782Z,6.60
2022-09-22T23:40:35.971Z,6.50
2022-09-22T23:43:02.727Z,6.50
2022-09-22T23:45:29.436Z,6.30
2022-09-22T23:47:56.196Z,6.30
2022-09-22T23:50:22.998Z,6.30
2022-09-22T23:52:49.782Z,6.30
2022-09-22T23:55:16.554Z,6.40
2022-09-22T23:57:43.277Z,6.50
